Time;durP1;ratioP1;P1;durP2;ratioP2;P2;SDS_P1;SDS_P2;PMS_P1;PMS_P2;Temp;Humidity;BMP_temperature;BMP_pressure;BME280_temperature;BME280_humidity;BME280_pressure;Samples;Min_cycle;Max_cycle;Signal;HPM_P1;HPM_P2
2022/07/01 00:01:23;;;;;;;7.80;2.70;;;;;;;23.82;64.15;99727.72;5109321;27;20038;-76
2022/07/01 00:03:51;;;;;;;9.90;2.75;;;;;;;23.76;64.44;99722.50;5131506;27;20084;-76
2022/07/01 00:06:20;;;;;;;5.90;2.75;;;;;;;23.82;64.45;99726.91;5127137;27;20027;-76
2022/07/01 00:08:46;;;;;;;5.30;3.08;;;;;;;23.86;64.37;99719.94;5130276;27;20047;-76
2022/07/01 00:11:12;;;;;;;5.78;2.78;;;;;;;24.01;63.85;99708.53;5125979;27;20047;-76
2022/07/01 00:13:37;;;;;;;4.85;2.53;;;;;;;24.09;63.63;99716.22;5129434;27;20039;-76
2022/07/01 00:16:03;;;;;;;6.10;2.90;;;;;;;24.05;64.22;99709.66;5129513;27;20372;-76
2022/07/01 00:18:29;;;;;;;7.60;2.53;;;;;;;24.12;63.99;99705.69;5130003;27;20291;-76
2022/07/01 00:20:55;;;;;;;7.63;3.00;;;;;;;24.09;64.06;99708.91;5131684;27;20182;-76
2022/07/01 00:23:20;;;;;;;13.23;3.33;;;;;;;24.14;63.63;99711.69;5130100;27;20088;-75
2022/07/01 00:25:46;;;;;;;8.98;3.17;;;;;;;24.10;63.66;99704.31;5129520;27;20186;-76
2022/07/01 00:28:12;;;;;;;8.02;2.90;;;;;;;24.13;63.50;99696.50;5112962;27;20031;-76
2022/07/01 00:30:38;;;;;;;7.35;3.15;;;;;;;24.08;63.42;99707.28;5128036;27;20134;-76
2022/07/01 00:33:04;;;;;;;11.98;3.13;;;;;;;24.24;62.92;99719.09;5131180;27;20320;-76
2022/07/01 00:35:30;;;;;;;9.00;3.08;;;;;;;24.20;62.94;99720.69;5127125;27;20254;-75
2022/07/01 00:37:55;;;;;;;9.57;3.42;;;;;;;24.05;63.21;99718.59;5129326;27;20038;-75
2022/07/01 00:40:21;;;;;;;7.40;3.20;;;;;;;24.07;63.17;99712.94;5130793;27;20051;-76
2022/07/01 00:42:46;;;;;;;6.20;3.00;;;;;;;24.06;63.37;99709.41;5127941;27;20035;-76
2022/07/01 00:45:12;;;;;;;5.00;3.20;;;;;;;24.09;63.34;99718.91;5131630;27;20035;-76
2022/07/01 00:47:40;;;;;;;8.82;2.90;;;;;;;23.98;63.09;99711.72;5134222;27;20046;-76
2022/07/01 00:50:07;;;;;;;7.85;2.95;;;;;;;24.01;63.06;99712.06;5128560;27;20032;-76
2022/07/01 00:52:33;;;;;;;7.28;3.13;;;;;;;24.07;62.85;99705.63;5128634;27;20063;-75
2022/07/01 00:55:04;;;;;;;7.57;3.25;;;;;;;24.09;62.62;99708.09;5129105;27;20052;-75
2022/07/01 00:57:31;;;;;;;7.20;3.20;;;;;;;24.10;63.03;99709.72;5128453;27;20256;-76
2022/07/01 00:59:57;;;;;;;7.03;3.28;;;;;;;24.04;62.68;99691.81;5127628;27;20350;-76
2022/07/01 01:02:22;;;;;;;10.00;3.30;;;;;;;24.02;62.41;99697.47;5109998;27;20028;-76
2022/07/01 01:04:48;;;;;;;9.18;3.58;;;;;;;24.05;62.20;99696.97;5125384;27;20028;-75
2022/07/01 01:07:13;;;;;;;6.47;3.10;;;;;;;24.08;62.17;99701.88;5110248;27;20361;-75
2022/07/01 01:09:39;;;;;;;9.98;3.10;;;;;;;23.86;63.20;99698.28;5126432;27;20348;-75
2022/07/01 01:12:05;;;;;;;7.43;3.30;;;;;;;23.78;63.58;99690.63;5128903;27;20048;-76
2022/07/01 01:14:47;;;;;;;8.95;3.13;;;;;;;23.98;62.82;99696.31;5125623;27;20069;-75
2022/07/01 01:17:14;;;;;;;5.25;3.28;;;;;;;24.01;62.29;99695.00;5129484;27;20050;-75
2022/07/01 01:19:41;;;;;;;9.60;3.15;;;;;;;24.00;62.23;99693.38;5128650;27;20095;-75
2022/07/01 01:22:06;;;;;;;4.55;3.08;;;;;;;24.04;61.89;99700.72;5128826;27;20142;-76
2022/07/01 01:24:32;;;;;;;6.97;3.50;;;;;;;23.92;62.15;99704.59;5128551;27;20043;-76
2022/07/01 01:26:57;;;;;;;10.38;3.63;;;;;;;23.44;63.80;99693.34;5126672;27;20023;-76
2022/07/01 01:29:23;;;;;;;9.10;3.75;;;;;;;23.49;64.09;99696.13;5113121;27;20034;-75
2022/07/01 01:31:48;;;;;;;9.38;3.83;;;;;;;23.41;64.25;99677.63;5106970;27;20035;-75
2022/07/01 01:34:14;;;;;;;11.65;3.55;;;;;;;23.52;64.26;99692.09;5130196;27;20042;-75
2022/07/01 01:36:39;;;;;;;10.52;3.50;;;;;;;23.57;64.37;99703.03;5126232;27;20036;-76
2022/07/01 01:39:17;;;;;;;5.93;3.55;;;;;;;23.39;65.47;99689.75;5135251;27;20027;-75
2022/07/01 01:41:43;;;;;;;11.95;3.83;;;;;;;23.47;65.76;99700.13;5129584;27;20035;-76
2022/07/01 01:44:09;;;;;;;8.25;3.33;;;;;;;23.53;65.79;99696.44;5126222;27;20035;-76
2022/07/01 01:46:36;;;;;;;6.07;3.20;;;;;;;23.32;66.88;99703.44;5126251;27;20206;-75
2022/07/01 01:49:03;;;;;;;5.93;3.38;;;;;;;23.41;66.84;99712.75;5127170;27;20028;-76
2022/07/01 01:51:28;;;;;;;6.97;3.45;;;;;;;23.35;66.96;99708.34;5125400;27;20240;-75
2022/07/01 01:53:54;;;;;;;7.85;3.40;;;;;;;23.40;66.72;99705.72;5130047;27;20027;-75
2022/07/01 01:56:20;;;;;;;6.45;3.30;;;;;;;23.18;66.76;99708.34;5124968;27;20038;-75
2022/07/01 01:58:45;;;;;;;11.68;3.97;;;;;;;23.36;66.38;99704.56;5130255;27;20039;-76
2022/07/01 02:01:12;;;;;;;4.47;3.03;;;;;;;23.32;65.27;99708.00;5124433;27;20069;-76
2022/07/01 02:03:40;;;;;;;5.70;2.95;;;;;;;23.05;66.71;99705.13;5130407;27;20110;-75
2022/07/01 02:06:07;;;;;;;7.88;3.10;;;;;;;22.85;67.87;99701.00;5125263;27;20034;-75
2022/07/01 02:08:33;;;;;;;9.07;3.35;;;;;;;22.89;68.21;99699.47;5127883;27;20103;-75
2022/07/01 02:10:58;;;;;;;7.07;3.83;;;;;;;22.92;68.08;99696.28;5124703;27;20050;-76
2022/07/01 02:13:25;;;;;;;13.60;4.07;;;;;;;23.03;68.20;99702.69;5127724;27;20423;-76
2022/07/01 02:15:51;;;;;;;9.93;3.72;;;;;;;23.11;67.70;99710.38;5128778;27;20027;-76
2022/07/01 02:18:17;;;;;;;6.53;3.25;;;;;;;23.15;67.66;99719.63;5109410;27;20046;-75
2022/07/01 02:20:43;;;;;;;7.63;3.33;;;;;;;23.16;67.46;99718.56;5133511;27;20038;-76
2022/07/01 02:23:09;;;;;;;8.85;3.35;;;;;;;23.14;67.26;99726.09;5127937;27;20236;-75
2022/07/01 02:25:35;;;;;;;8.73;3.13;;;;;;;23.08;67.38;99732.47;5123112;27;20034;-75
2022/07/01 02:28:01;;;;;;;8.32;3.60;;;;;;;22.96;67.42;99736.31;5127598;27;20217;-76
2022/07/01 02:30:27;;;;;;;11.38;3.30;;;;;;;22.88;67.32;99729.38;5114304;27;20037;-75
2022/07/01 02:32:52;;;;;;;6.47;3.28;;;;;;;22.76;67.66;99744.78;5128100;27;20026;-75
2022/07/01 02:35:18;;;;;;;7.75;3.17;;;;;;;22.69;68.42;99742.25;5130569;27;20301;-75
2022/07/01 02:37:43;;;;;;;7.85;3.83;;;;;;;22.70;68.92;99738.47;5131164;27;20042;-76
2022/07/01 02:40:09;;;;;;;9.68;3.90;;;;;;;22.79;68.47;99739.72;5108027;27;20309;-76
2022/07/01 02:42:35;;;;;;;16.00;4.85;;;;;;;22.86;69.01;99739.59;5128247;27;20039;-75
2022/07/01 02:45:06;;;;;;;15.63;5.05;;;;;;;22.81;69.29;99734.94;5125151;27;20120;-76
2022/07/01 02:47:36;;;;;;;13.15;4.82;;;;;;;22.91;68.81;99742.44;5124538;27;20321;-75
2022/07/01 02:50:07;;;;;;;14.93;4.57;;;;;;;22.99;67.68;99750.13;5129329;27;20039;-76
2022/07/01 02:52:34;;;;;;;10.43;3.70;;;;;;;22.88;67.75;99762.59;5125163;27;20076;-76
2022/07/01 02:55:03;;;;;;;10.63;4.15;;;;;;;22.62;68.12;99758.56;5128908;27;20023;-76
2022/07/01 02:57:29;;;;;;;11.65;4.00;;;;;;;22.48;69.25;99767.19;5126579;27;20059;-76
2022/07/01 02:59:55;;;;;;;11.73;4.28;;;;;;;22.39;70.21;99766.75;5123153;27;21328;-76
2022/07/01 03:02:21;;;;;;;10.55;4.72;;;;;;;22.46;70.08;99772.81;5126180;27;20027;-76
2022/07/01 03:04:48;;;;;;;8.45;3.63;;;;;;;22.51;68.97;99761.31;5115357;27;20027;-76
2022/07/01 03:07:15;;;;;;;9.65;4.10;;;;;;;22.54;69.38;99772.44;5130378;27;20038;-76
2022/07/01 03:09:41;;;;;;;9.25;4.10;;;;;;;22.60;69.42;99765.28;5131172;27;20026;-76
2022/07/01 03:14:52;;;;;;;11.65;4.88;;;;;;;22.62;71.08;99765.84;5126042;27;20030;-76
2022/07/01 03:17:18;;;;;;;20.48;6.53;;;;;;;22.52;71.92;99766.47;5109090;28;20030;-76
2022/07/01 03:19:44;;;;;;;16.65;6.68;;;;;;;;;;5125008;28;20433;-76
2022/07/01 03:22:10;;;;;;;17.20;6.78;;;;;;;22.85;71.07;99776.59;5122077;28;20095;-75
2022/07/01 03:24:35;;;;;;;22.52;6.57;;;;;;;22.92;71.07;99780.00;5125283;28;20214;-75
2022/07/01 03:27:01;;;;;;;16.30;6.95;;;;;;;23.05;70.70;99786.16;5128681;28;20248;-73
2022/07/01 03:29:26;;;;;;;11.95;6.88;;;;;;;23.12;70.47;99771.44;5125376;28;20047;-74
2022/07/01 03:31:52;;;;;;;16.30;6.85;;;;;;;22.98;70.80;99778.19;5127288;27;20042;-74
2022/07/01 03:34:17;;;;;;;12.57;6.60;;;;;;;22.99;70.79;99771.75;5124177;28;20057;-74
2022/07/01 03:36:43;;;;;;;10.10;6.63;;;;;;;23.10;70.81;99780.84;5126188;28;20415;-74
2022/07/01 03:39:08;;;;;;;12.93;6.80;;;;;;;23.20;70.24;99771.03;5126852;28;20310;-75
2022/07/01 03:41:34;;;;;;;13.63;6.55;;;;;;;23.04;71.04;99773.72;5112472;28;20130;-75
2022/07/01 03:43:59;;;;;;;18.13;7.20;;;;;;;23.06;71.12;99766.19;5128607;28;20027;-76
2022/07/01 03:46:25;;;;;;;13.65;7.18;;;;;;;23.13;71.10;99777.66;5124105;28;20035;-74
2022/07/01 03:48:50;;;;;;;12.45;6.75;;;;;;;23.02;71.69;99773.13;5108325;28;20038;-74
2022/07/01 03:51:16;;;;;;;10.13;6.38;;;;;;;22.99;71.44;99760.94;5123634;28;20031;-74
2022/07/01 03:56:25;;;;;;;12.95;7.30;;;;;;;22.94;72.60;99768.94;5126615;28;20137;-76
2022/07/01 03:58:50;;;;;;;24.35;7.32;;;;;;;23.07;72.24;99774.06;5131626;27;20043;-75
2022/07/01 04:01:16;;;;;;;14.20;7.45;;;;;;;23.09;72.13;99768.41;5126505;28;20335;-75
2022/07/01 04:03:41;;;;;;;20.13;10.55;;;;;;;23.16;71.29;99763.66;5106349;28;20237;-75
2022/07/01 04:06:07;;;;;;;25.90;17.83;;;;;;;23.16;71.35;99767.19;5126175;28;20225;-76
2022/07/01 04:08:32;;;;;;;32.40;16.73;;;;;;;23.13;71.99;99772.25;5108606;28;20202;-76
2022/07/01 04:10:58;;;;;;;19.77;10.18;;;;;;;23.28;71.62;99766.28;5126045;28;20057;-76
2022/07/01 04:13:24;;;;;;;16.95;9.70;;;;;;;23.27;71.91;99773.59;5125037;28;20038;-74
2022/07/01 04:15:50;;;;;;;15.40;7.65;;;;;;;23.20;72.71;99776.44;5127451;27;20100;-74
2022/07/01 04:18:15;;;;;;;21.23;7.47;;;;;;;23.36;71.86;99782.09;5124511;28;20061;-76
2022/07/01 04:20:41;;;;;;;16.73;7.63;;;;;;;23.47;71.35;99784.72;5127206;27;20190;-74
2022/07/01 04:23:06;;;;;;;27.88;8.13;;;;;;;23.76;70.20;99777.38;5129671;27;20104;-74
2022/07/01 04:25:32;;;;;;;23.73;6.35;;;;;;;24.12;68.30;99778.75;5110827;27;20439;-76
2022/07/01 04:27:58;;;;;;;13.02;5.97;;;;;;;24.25;67.63;99779.44;5129830;27;20030;-74
2022/07/01 04:30:23;;;;;;;14.90;5.70;;;;;;;24.38;67.72;99787.22;5128751;27;20050;-74
2022/07/01 04:32:49;;;;;;;29.08;6.50;;;;;;;24.65;67.29;99790.00;5128267;27;20035;-75
2022/07/01 04:35:14;;;;;;;16.45;6.20;;;;;;;24.66;66.68;99780.78;5128432;27;20032;-74
2022/07/01 04:37:40;;;;;;;12.27;5.97;;;;;;;24.71;66.96;99780.84;5132473;27;20030;-74
2022/07/01 04:40:07;;;;;;;12.50;5.72;;;;;;;24.40;66.24;99775.06;5134838;27;20043;-74
2022/07/01 04:42:32;;;;;;;14.40;5.32;;;;;;;24.57;66.10;99776.91;5126556;27;20031;-74
2022/07/01 04:44:58;;;;;;;11.60;5.28;;;;;;;24.84;65.42;99773.16;5134805;27;20356;-74
2022/07/01 04:47:23;;;;;;;16.20;5.15;;;;;;;25.17;63.58;99770.56;5109905;27;20305;-75
2022/07/01 04:49:49;;;;;;;10.02;5.10;;;;;;;25.37;63.03;99766.13;5129638;27;20031;-74
2022/07/01 04:52:15;;;;;;;15.80;5.22;;;;;;;25.56;61.31;99766.53;5129098;27;20084;-74
2022/07/01 04:54:41;;;;;;;16.95;5.22;;;;;;;25.80;58.94;99756.16;5130377;27;20035;-74
2022/07/01 04:57:06;;;;;;;10.45;4.85;;;;;;;25.98;58.54;99768.50;5128037;27;20051;-75
2022/07/01 04:59:32;;;;;;;13.73;4.93;;;;;;;26.03;58.76;99772.06;5130386;27;20076;-75
2022/07/01 05:01:59;;;;;;;14.15;5.18;;;;;;;25.92;59.04;99772.25;5126414;27;20292;-75
2022/07/01 05:04:27;;;;;;;8.82;4.75;;;;;;;25.73;59.08;99780.81;5130582;27;20042;-74
2022/07/01 05:06:53;;;;;;;14.68;5.25;;;;;;;26.24;58.07;99775.72;5127295;27;20092;-74
2022/07/01 05:09:19;;;;;;;11.40;5.20;;;;;;;26.39;57.14;99777.72;5128907;27;20031;-75
2022/07/01 05:11:44;;;;;;;10.00;4.63;;;;;;;26.43;57.44;99778.81;5126330;27;20035;-75
2022/07/01 05:14:09;;;;;;;13.35;5.00;;;;;;;26.67;55.95;99776.47;5130511;27;20023;-75
2022/07/01 05:16:35;;;;;;;8.93;4.47;;;;;;;26.93;55.07;99780.06;5107628;27;20042;-75
2022/07/01 05:21:58;;;;;;;6.13;4.18;;;;;;;26.72;54.93;99784.63;5126422;27;20079;-74
2022/07/01 05:24:28;;;;;;;31.13;5.63;;;;;;;26.95;54.92;99781.44;5128506;27;20094;-75
2022/07/01 05:26:53;;;;;;;9.88;4.75;;;;;;;27.26;53.65;99792.41;5110814;27;20233;-75
2022/07/01 05:29:19;;;;;;;14.75;4.63;;;;;;;27.52;52.81;99790.50;5125597;27;20043;-75
2022/07/01 05:31:44;;;;;;;8.95;4.47;;;;;;;27.56;52.50;99783.44;5127354;27;20042;-75
2022/07/01 05:34:10;;;;;;;8.50;4.40;;;;;;;27.76;51.36;99796.25;5125706;27;20312;-75
2022/07/01 05:36:35;;;;;;;13.38;4.70;;;;;;;27.80;50.88;99787.25;5129163;27;20054;-75
2022/07/01 05:39:01;;;;;;;11.23;5.00;;;;;;;27.72;51.95;99778.84;5125997;27;20359;-75
2022/07/01 05:41:28;;;;;;;11.52;5.00;;;;;;;28.20;50.61;99783.66;5111361;27;20279;-75
2022/07/01 05:43:53;;;;;;;10.32;4.38;;;;;;;28.37;48.79;99791.53;5107793;27;20038;-75
2022/07/01 05:46:19;;;;;;;6.47;3.97;;;;;;;28.29;48.95;99783.94;5130177;27;20031;-75
2022/07/01 05:48:44;;;;;;;13.35;4.38;;;;;;;28.41;48.45;99791.78;5124329;27;20027;-75
2022/07/01 05:51:10;;;;;;;11.27;4.10;;;;;;;28.27;47.90;99780.66;5130622;27;20053;-74
2022/07/01 05:53:35;;;;;;;7.28;3.65;;;;;;;28.75;46.24;99791.91;5124015;27;20362;-75
2022/07/01 05:56:00;;;;;;;6.63;3.33;;;;;;;29.11;45.61;99782.44;5133828;27;20019;-75
2022/07/01 05:58:26;;;;;;;8.13;3.10;;;;;;;29.42;45.24;99782.25;5129202;27;20042;-74
2022/07/01 06:00:51;;;;;;;10.52;3.67;;;;;;;29.17;44.60;99788.72;5124897;27;20047;-74
2022/07/01 06:03:17;;;;;;;7.93;3.42;;;;;;;29.37;44.91;99779.56;5126985;27;20019;-75
2022/07/01 06:05:42;;;;;;;7.82;3.40;;;;;;;29.62;43.55;99784.84;5127379;27;20030;-75
2022/07/01 06:08:08;;;;;;;9.55;3.40;;;;;;;29.40;44.23;99781.72;5127360;27;20023;-75
2022/07/01 06:10:35;;;;;;;6.45;3.35;;;;;;;29.51;43.56;99777.84;5124939;27;20047;-75
2022/07/01 06:13:01;;;;;;;8.30;3.70;;;;;;;29.35;43.39;99770.84;5128213;27;20332;-75
2022/07/01 06:15:27;;;;;;;8.57;3.80;;;;;;;29.36;43.83;99777.94;5128239;27;20256;-74
2022/07/01 06:17:53;;;;;;;9.25;3.80;;;;;;;29.49;43.27;99777.31;5127425;27;20031;-75
2022/07/01 06:20:18;;;;;;;9.73;3.70;;;;;;;29.84;41.94;99770.69;5128416;27;20038;-75
2022/07/01 06:22:44;;;;;;;7.45;3.90;;;;;;;29.57;42.24;99778.59;5127481;27;20182;-75
2022/07/01 06:25:09;;;;;;;15.27;4.75;;;;;;;29.74;41.75;99773.53;5124936;27;20042;-75
2022/07/01 06:27:43;;;;;;;10.35;3.30;;;;;;;30.14;41.72;99775.06;5126570;27;20035;-75
2022/07/01 06:30:09;;;;;;;5.57;3.42;;;;;;;29.99;41.24;99784.19;5126271;27;20325;-75
2022/07/01 06:32:35;;;;;;;8.73;3.83;;;;;;;29.84;40.91;99784.34;5128297;27;20039;-75
2022/07/01 06:35:01;;;;;;;9.57;3.28;;;;;;;29.97;41.45;99788.31;5129466;27;20255;-75
2022/07/01 06:37:26;;;;;;;7.22;3.75;;;;;;;29.97;41.17;99780.13;5132531;27;20046;-75
2022/07/01 06:39:52;;;;;;;115.18;15.13;;;;;;;30.16;41.40;99784.59;5123933;27;20038;-75
2022/07/01 06:42:17;;;;;;;11.15;3.72;;;;;;;30.13;41.60;99782.44;5129886;27;20102;-75
2022/07/01 06:44:42;;;;;;;8.30;3.67;;;;;;;30.75;40.56;99788.00;5125758;27;20064;-75
2022/07/01 06:47:08;;;;;;;7.93;3.75;;;;;;;30.78;40.55;99785.50;5108683;28;20031;-75
2022/07/01 06:49:34;;;;;;;10.73;4.32;;;;;;;30.81;39.94;99771.25;5125481;27;20040;-75
2022/07/01 06:51:59;;;;;;;6.57;3.08;;;;;;;30.76;38.52;99774.06;5125828;27;20027;-75
2022/07/01 06:54:25;;;;;;;360.77;40.75;;;;;;;31.22;38.65;99781.63;5126568;27;20038;-75
2022/07/01 06:56:50;;;;;;;14.27;4.00;;;;;;;31.46;38.01;99778.78;5127385;27;20031;-75
2022/07/01 06:59:16;;;;;;;6.65;3.00;;;;;;;31.63;37.76;99784.50;5126004;27;20073;-75
2022/07/01 07:01:41;;;;;;;6.32;3.40;;;;;;;31.52;38.88;99776.78;5127174;27;20029;-75
2022/07/01 07:04:07;;;;;;;12.40;3.10;;;;;;;31.94;37.42;99773.03;5124638;27;20372;-75
2022/07/01 07:06:33;;;;;;;7.25;3.17;;;;;;;32.26;36.63;99770.28;5127166;27;20029;-75
2022/07/01 07:08:58;;;;;;;5.13;2.83;;;;;;;32.14;36.28;99771.84;5124415;27;20107;-75
2022/07/01 07:11:24;;;;;;;6.15;3.10;;;;;;;32.07;36.19;99764.84;5125014;27;20031;-75
2022/07/01 07:13:51;;;;;;;6.75;2.83;;;;;;;31.71;36.24;99767.44;5126896;27;20035;-75
2022/07/01 07:16:20;;;;;;;5.32;2.92;;;;;;;32.02;35.55;99764.13;5107626;28;20388;-75
2022/07/01 07:18:47;;;;;;;7.05;3.08;;;;;;;32.51;35.51;99771.69;5126391;28;20036;-75
2022/07/01 07:21:12;;;;;;;11.88;3.05;;;;;;;32.80;33.98;99765.88;5129272;28;20030;-75
2022/07/01 07:23:38;;;;;;;5.65;2.92;;;;;;;32.58;34.44;99760.31;5126225;28;20029;-75
2022/07/01 07:26:03;;;;;;;8.93;3.10;;;;;;;32.96;34.13;99764.41;5123645;28;20032;-75
2022/07/01 07:28:29;;;;;;;12.00;2.90;;;;;;;33.14;35.16;99768.09;5127485;28;20201;-75
2022/07/01 07:30:54;;;;;;;9.45;3.38;;;;;;;33.42;33.95;99762.53;5125605;27;20202;-75
2022/07/01 07:33:19;;;;;;;6.75;2.63;;;;;;;33.71;33.50;99760.13;5131571;28;20031;-75
2022/07/01 07:35:45;;;;;;;6.63;2.75;;;;;;;33.83;31.34;99756.81;5124856;28;20027;-75
2022/07/01 07:38:11;;;;;;;10.00;2.95;;;;;;;33.70;31.97;99750.25;5129782;28;20064;-75
2022/07/01 07:40:37;;;;;;;4.95;2.60;;;;;;;33.59;31.18;99741.50;5125726;28;20043;-75
2022/07/01 07:43:03;;;;;;;3.53;2.50;;;;;;;33.90;31.31;99741.50;5127888;28;20107;-74
2022/07/01 07:45:29;;;;;;;5.68;3.03;;;;;;;33.85;31.17;99754.56;5124833;28;20227;-75
2022/07/01 07:47:54;;;;;;;9.43;2.70;;;;;;;34.20;31.63;99742.59;5129356;28;20030;-75
2022/07/01 07:50:22;;;;;;;6.70;2.70;;;;;;;34.05;32.19;99755.94;5126807;28;20325;-75
2022/07/01 07:52:47;;;;;;;6.32;2.40;;;;;;;33.83;30.79;99748.59;5126601;28;20019;-75
2022/07/01 07:55:13;;;;;;;4.53;2.75;;;;;;;34.16;30.97;99741.59;5130713;27;20365;-75
2022/07/01 07:57:40;;;;;;;7.25;3.25;;;;;;;34.46;31.09;99750.94;5129955;27;20038;-74
2022/07/01 08:00:07;;;;;;;7.82;2.75;;;;;;;34.51;29.34;99756.31;5131481;27;20045;-75
2022/07/01 08:02:33;;;;;;;6.30;2.60;;;;;;;34.41;30.30;99742.03;5112280;27;20031;-75
2022/07/01 08:04:59;;;;;;;6.50;2.50;;;;;;;34.75;29.39;99755.84;5108793;27;20073;-75
2022/07/01 08:07:24;;;;;;;9.15;2.50;;;;;;;34.83;30.38;99752.31;5132216;27;20320;-75
2022/07/01 08:09:50;;;;;;;8.27;2.72;;;;;;;34.58;29.78;99751.13;5127421;27;20340;-75
2022/07/01 08:12:16;;;;;;;8.48;2.67;;;;;;;34.60;30.88;99750.00;5133969;27;20035;-75
2022/07/01 08:14:42;;;;;;;13.30;3.38;;;;;;;34.93;30.45;99748.44;5108546;28;20259;-75
2022/07/01 08:17:08;;;;;;;6.40;2.63;;;;;;;35.12;30.71;99756.38;5135767;27;20019;-74
2022/07/01 08:19:33;;;;;;;11.88;3.05;;;;;;;35.09;29.82;99754.25;5130064;27;20084;-75
2022/07/01 08:21:59;;;;;;;8.07;2.78;;;;;;;34.98;29.16;99748.28;5109158;27;20031;-75
2022/07/01 08:24:24;;;;;;;10.48;2.88;;;;;;;35.06;30.30;99749.41;5137016;27;20233;-75
2022/07/01 08:26:50;;;;;;;7.13;3.28;;;;;;;34.70;30.78;99745.00;5127387;27;20081;-75
2022/07/01 08:29:15;;;;;;;6.38;2.90;;;;;;;34.87;30.88;99739.53;5110401;27;20217;-75
2022/07/01 08:31:41;;;;;;;8.20;2.97;;;;;;;34.94;30.55;99736.31;5126679;27;20051;-75
2022/07/01 08:34:06;;;;;;;9.65;2.88;;;;;;;35.32;29.25;99727.38;5130600;27;20059;-75
2022/07/01 08:36:32;;;;;;;9.13;2.50;;;;;;;35.10;29.42;99742.94;5130627;27;20034;-75
2022/07/01 08:38:58;;;;;;;4.05;2.75;;;;;;;35.44;29.41;99738.56;5129690;27;20027;-75
2022/07/01 08:41:23;;;;;;;5.57;2.47;;;;;;;35.36;28.97;99734.66;5134223;27;20019;-75
2022/07/01 08:43:49;;;;;;;4.65;2.42;;;;;;;35.45;29.79;99740.19;5130162;27;20030;-75
2022/07/01 08:46:14;;;;;;;8.65;2.83;;;;;;;35.82;28.70;99733.13;5115022;27;20019;-75
2022/07/01 08:48:44;;;;;;;7.45;2.50;;;;;;;35.60;28.30;99736.09;5129561;27;20173;-75
2022/07/01 08:51:10;;;;;;;6.18;2.50;;;;;;;35.34;28.39;99731.44;5128864;27;20100;-75
2022/07/01 08:53:37;;;;;;;6.32;2.58;;;;;;;35.37;26.99;99739.03;5117384;28;20341;-75
2022/07/01 08:58:51;;;;;;;9.38;2.85;;;;;;;35.26;28.87;99731.41;5127009;27;20430;-75
2022/07/01 09:01:21;;;;;;;5.10;2.30;;;;;;;35.25;28.42;99725.09;5127652;27;20096;-75
2022/07/01 09:03:49;;;;;;;6.80;2.58;;;;;;;35.31;28.35;99725.75;5126785;27;20039;-75
2022/07/01 09:06:20;;;;;;;5.60;2.60;;;;;;;34.91;29.29;99727.88;5126147;27;20028;-75
2022/07/01 09:08:46;;;;;;;4.03;2.15;;;;;;;35.05;29.25;99721.09;5132939;27;20031;-75
2022/07/01 09:11:19;;;;;;;7.10;2.38;;;;;;;35.16;28.77;99718.81;5135832;27;20035;-75
2022/07/01 09:14:05;;;;;;;5.82;2.33;;;;;;;35.16;28.68;99722.38;5129004;27;20035;-75
2022/07/01 09:16:49;;;;;;;4.40;2.42;;;;;;;35.11;29.94;99721.72;5137056;27;20039;-75
2022/07/01 09:19:17;;;;;;;6.93;2.42;;;;;;;35.44;28.58;99716.53;5127473;27;20062;-75
2022/07/01 09:21:47;;;;;;;5.45;2.38;;;;;;;35.65;27.93;99724.91;5128137;27;20045;-75
2022/07/01 09:24:32;;;;;;;8.48;3.05;;;;;;;35.59;29.33;99721.50;5124520;27;20039;-75
2022/07/01 09:27:12;;;;;;;7.38;2.50;;;;;;;35.61;29.97;99713.72;5134705;27;20372;-75
2022/07/01 09:29:40;;;;;;;5.20;2.55;;;;;;;35.31;30.09;99718.28;5127955;27;20352;-75
2022/07/01 09:32:08;;;;;;;8.95;2.25;;;;;;;35.47;29.17;99724.94;5126671;27;20050;-75
2022/07/01 09:34:39;;;;;;;5.95;2.40;;;;;;;35.51;29.57;99714.91;5126826;27;20035;-74
2022/07/01 09:37:05;;;;;;;4.97;2.63;;;;;;;35.46;29.38;99708.75;5108602;28;20069;-75
2022/07/01 09:39:41;;;;;;;7.68;2.83;;;;;;;35.42;28.11;99708.59;5127868;27;20031;-75
2022/07/01 09:42:07;;;;;;;8.52;2.53;;;;;;;35.43;28.82;99695.66;5126333;27;20140;-75
2022/07/01 09:44:32;;;;;;;3.20;2.30;;;;;;;35.36;28.99;99711.84;5131270;27;20035;-75
2022/07/01 09:46:58;;;;;;;8.20;2.88;;;;;;;35.40;31.04;99699.06;5106473;27;20019;-75
2022/07/01 09:49:24;;;;;;;3.72;2.60;;;;;;;35.33;29.60;99699.53;5129824;27;20118;-75
2022/07/01 09:51:51;;;;;;;4.57;2.42;;;;;;;35.28;29.52;99699.66;5126634;27;20286;-75
2022/07/01 09:54:17;;;;;;;10.35;2.63;;;;;;;35.30;30.18;99696.59;5127515;27;20206;-75
2022/07/01 09:56:43;;;;;;;3.90;2.53;;;;;;;35.22;28.84;99695.47;5107453;27;20042;-75
2022/07/01 09:59:08;;;;;;;10.27;2.60;;;;;;;35.32;29.56;99694.34;5127155;27;20046;-75
2022/07/01 10:01:35;;;;;;;6.47;2.47;;;;;;;35.19;29.86;99693.38;5124477;27;20034;-75
2022/07/01 10:04:04;;;;;;;10.10;2.60;;;;;;;35.29;29.12;99700.47;5127620;27;20035;-75
2022/07/01 10:06:50;;;;;;;5.68;2.50;;;;;;;35.24;26.44;99693.22;5125704;27;20035;-75
2022/07/01 10:09:39;;;;;;;9.13;2.70;;;;;;;35.03;26.81;99695.03;5128905;27;20027;-75
2022/07/01 10:12:07;;;;;;;6.22;2.83;;;;;;;34.95;27.62;99685.66;5125119;27;20035;-75
2022/07/01 10:14:38;;;;;;;6.60;2.80;;;;;;;34.77;26.22;99692.25;5128461;27;20040;-75
2022/07/01 10:17:05;;;;;;;10.57;2.65;;;;;;;34.36;27.86;99674.28;5126835;27;20035;-75
2022/07/01 10:19:32;;;;;;;4.90;2.55;;;;;;;34.52;28.65;99682.88;5128563;27;20244;-75
2022/07/01 10:22:24;;;;;;;5.80;2.70;;;;;;;34.47;26.83;99685.78;5133168;27;20035;-75
2022/07/01 10:24:50;;;;;;;7.00;2.50;;;;;;;34.52;27.44;99674.63;5117263;28;20042;-75
2022/07/01 10:27:23;;;;;;;5.60;2.40;;;;;;;34.62;25.54;99676.25;5110015;27;20019;-75
2022/07/01 10:29:49;;;;;;;;;;;;;;;34.57;26.57;99678.03;5125138;27;20035;-75
2022/07/01 10:32:20;;;;;;;4.88;2.40;;;;;;;34.57;26.69;99666.22;5118559;27;20346;-75
2022/07/01 10:34:46;;;;;;;6.43;2.95;;;;;;;34.28;25.70;99659.34;5126723;27;20035;-75
2022/07/01 10:37:12;;;;;;;8.45;3.33;;;;;;;34.21;25.40;99670.00;5128350;27;20201;-75
2022/07/01 10:40:00;;;;;;;5.20;3.08;;;;;;;34.34;24.87;99664.75;5128743;27;20683;-75
2022/07/01 10:42:36;;;;;;;4.38;2.90;;;;;;;34.18;26.79;99656.09;5125133;27;20039;-75
2022/07/01 10:45:11;;;;;;;5.47;3.00;;;;;;;34.17;26.58;99630.56;5127824;27;20314;-75
2022/07/01 10:47:38;;;;;;;7.78;2.85;;;;;;;34.29;26.86;99651.91;5124935;27;20042;-75
2022/07/01 10:50:12;;;;;;;6.75;2.70;;;;;;;34.43;26.56;99649.88;5127227;27;20038;-75
2022/07/01 10:52:39;;;;;;;;;;;;;;;34.48;25.92;99651.66;5127231;27;20219;-75
2022/07/01 10:55:07;;;;;;;8.32;2.88;;;;;;;34.74;26.38;99648.91;5110193;27;19930;-75
2022/07/01 10:57:37;;;;;;;5.63;2.83;;;;;;;34.78;26.59;99644.38;5125138;27;20259;-75
2022/07/01 11:00:02;;;;;;;6.13;2.97;;;;;;;34.94;26.38;99639.19;5128585;27;20275;-75
2022/07/01 11:02:30;;;;;;;6.40;2.53;;;;;;;35.07;25.48;99640.94;5107873;28;20229;-75
2022/07/01 11:04:58;;;;;;;12.32;3.72;;;;;;;34.82;25.63;99643.44;5131416;27;20051;-75
2022/07/01 11:07:27;;;;;;;5.43;2.90;;;;;;;34.62;25.74;99638.56;5128482;27;20027;-75
2022/07/01 11:09:53;;;;;;;4.80;2.53;;;;;;;34.53;26.86;99638.56;5125679;27;20047;-74
2022/07/01 11:12:23;;;;;;;4.50;2.90;;;;;;;34.56;24.97;99637.91;5125061;28;20325;-75
2022/07/01 11:14:48;;;;;;;4.93;2.75;;;;;;;34.43;27.15;99641.63;5106873;28;20019;-75
2022/07/01 11:17:14;;;;;;;4.00;2.50;;;;;;;34.53;27.13;99637.75;5127915;28;20064;-75
2022/07/01 11:19:39;;;;;;;9.95;2.67;;;;;;;34.41;26.27;99638.41;5125843;28;20039;-75
2022/07/01 11:22:05;;;;;;;4.28;2.40;;;;;;;34.26;26.46;99633.31;5125790;27;20209;-75
2022/07/01 11:24:31;;;;;;;9.43;2.88;;;;;;;34.15;27.20;99637.50;5125698;28;20035;-75
2022/07/01 11:27:06;;;;;;;7.25;2.40;;;;;;;34.12;26.94;99627.16;5127862;28;20039;-75
2022/07/01 11:29:32;;;;;;;4.35;2.83;;;;;;;34.19;26.50;99619.25;5132807;27;20039;-75
2022/07/01 11:31:57;;;;;;;8.95;3.00;;;;;;;34.44;25.92;99620.44;5127813;27;20063;-75
2022/07/01 11:34:23;;;;;;;3.78;2.40;;;;;;;34.42;26.74;99618.03;5132566;27;20030;-74
2022/07/01 11:39:35;;;;;;;6.15;2.65;;;;;;;34.38;26.53;99619.81;5129934;27;20233;-75
2022/07/01 11:42:06;;;;;;;5.75;2.60;;;;;;;34.39;26.47;99604.91;5121482;27;20207;-75
2022/07/01 11:44:39;;;;;;;11.30;3.50;;;;;;;34.26;27.25;99608.56;5129040;27;20082;-75